Time;durP1;ratioP1;P1;durP2;ratioP2;P2;SDS_P1;SDS_P2;PMS_P1;PMS_P2;Temp;Humidity;BMP_temperature;BMP_pressure;BME280_temperature;BME280_humidity;BME280_pressure;Samples;Min_cycle;Max_cycle;Signal;HPM_P1;HPM_P2
2024/01/02 00:00:36;;;;;;;6.70;2.90;;;;;;;6.13;100.00;100018.97;5093385;28;20390;-44
2024/01/02 00:03:04;;;;;;;8.05;3.22;;;;;;;6.10;100.00;100014.69;5074584;28;20052;-47
2024/01/02 00:05:33;;;;;;;7.80;3.03;;;;;;;6.07;100.00;100014.81;5072894;28;20048;-44
2024/01/02 00:08:01;;;;;;;7.47;3.08;;;;;;;6.02;100.00;100015.03;5077327;28;20040;-46
2024/01/02 00:10:30;;;;;;;6.85;2.70;;;;;;;6.05;100.00;100016.69;5092928;28;20382;-45
2024/01/02 00:13:01;;;;;;;8.52;2.83;;;;;;;6.05;100.00;100021.97;5092922;28;20397;-46
2024/01/02 00:15:29;;;;;;;6.63;2.60;;;;;;;6.07;100.00;100012.16;5092896;28;20048;-45
2024/01/02 00:17:58;;;;;;;7.78;2.70;;;;;;;6.08;100.00;100016.56;5092749;28;20051;-44
2024/01/02 00:20:26;;;;;;;7.07;2.80;;;;;;;6.06;100.00;100014.88;5092676;28;20052;-44
2024/01/02 00:22:55;;;;;;;6.70;2.90;;;;;;;6.10;100.00;100022.63;5075115;28;20056;-46
2024/01/02 00:25:23;;;;;;;6.53;2.72;;;;;;;6.12;100.00;100018.13;5075063;28;20135;-45
2024/01/02 00:27:51;;;;;;;6.78;2.63;;;;;;;6.14;100.00;100018.91;5076260;28;20136;-45
2024/01/02 00:30:21;;;;;;;5.60;2.53;;;;;;;6.04;100.00;100014.97;5072449;28;20406;-44
2024/01/02 00:32:50;;;;;;;5.30;2.65;;;;;;;6.01;100.00;100017.75;5072257;28;20509;-44
2024/01/02 00:35:19;;;;;;;9.30;3.28;;;;;;;6.04;100.00;100020.25;5052099;28;20095;-44
2024/01/02 00:37:47;;;;;;;5.68;2.33;;;;;;;5.99;100.00;100022.25;5051986;28;20504;-45
2024/01/02 00:40:16;;;;;;;6.78;3.03;;;;;;;5.94;100.00;100021.59;5052132;28;20041;-43
2024/01/02 00:42:45;;;;;;;6.63;2.90;;;;;;;5.95;100.00;100018.88;5052071;28;20111;-44
2024/01/02 00:45:13;;;;;;;6.32;2.70;;;;;;;5.95;100.00;100028.59;5052067;28;20132;-45
2024/01/02 00:47:43;;;;;;;5.85;2.90;;;;;;;5.97;100.00;100034.69;5051895;28;20092;-44
2024/01/02 00:50:12;;;;;;;7.70;2.78;;;;;;;5.99;100.00;100031.06;5051988;28;20689;-46
2024/01/02 00:52:40;;;;;;;5.95;2.67;;;;;;;6.00;100.00;100037.22;5086549;28;20055;-46
2024/01/02 00:55:09;;;;;;;5.95;2.60;;;;;;;6.05;100.00;100043.16;5076780;28;20052;-46
2024/01/02 00:57:37;;;;;;;6.00;2.42;;;;;;;6.06;100.00;100042.22;5091297;28;20101;-44
2024/01/02 01:00:07;;;;;;;5.47;2.30;;;;;;;6.05;100.00;100042.28;5091963;28;20074;-44
2024/01/02 01:02:36;;;;;;;6.57;2.75;;;;;;;6.00;100.00;100039.88;5091913;28;20044;-44
2024/01/02 01:05:07;;;;;;;7.20;2.42;;;;;;;5.93;100.00;100041.06;5091614;28;20040;-45
2024/01/02 01:07:36;;;;;;;6.45;2.35;;;;;;;5.89;100.00;100032.38;5084123;28;20166;-43
2024/01/02 01:10:05;;;;;;;6.25;2.60;;;;;;;5.84;100.00;100036.13;5072472;28;20041;-45
2024/01/02 01:12:33;;;;;;;4.50;2.10;;;;;;;5.82;100.00;100035.34;5071747;28;20479;-47
2024/01/02 01:15:01;;;;;;;5.85;2.17;;;;;;;5.81;100.00;100033.63;5089348;28;20044;-44
2024/01/02 01:17:30;;;;;;;6.95;2.65;;;;;;;5.85;100.00;100036.06;5091902;28;20087;-44
2024/01/02 01:19:58;;;;;;;6.82;2.42;;;;;;;5.91;100.00;100034.97;5092309;28;20076;-46
2024/01/02 01:22:28;;;;;;;5.15;2.40;;;;;;;5.92;100.00;100024.31;5092738;28;20075;-46
2024/01/02 01:24:56;;;;;;;5.95;2.50;;;;;;;5.94;100.00;100032.19;5091838;28;20055;-45
2024/01/02 01:27:25;;;;;;;8.73;2.33;;;;;;;5.95;100.00;100023.31;5091500;28;20058;-45
2024/01/02 01:29:53;;;;;;;4.90;2.17;;;;;;;6.00;100.00;100026.63;5090256;28;20653;-44
2024/01/02 01:32:21;;;;;;;5.63;2.30;;;;;;;6.00;100.00;100022.19;5071786;28;20044;-45
2024/01/02 01:34:51;;;;;;;6.75;2.22;;;;;;;6.00;100.00;100027.50;5071303;28;20127;-45
2024/01/02 01:37:19;;;;;;;5.28;2.20;;;;;;;5.99;100.00;100025.78;5071478;28;20091;-44
2024/01/02 01:39:49;;;;;;;6.03;2.20;;;;;;;5.98;100.00;100020.53;5071347;28;20047;-44
2024/01/02 01:42:18;;;;;;;6.35;2.28;;;;;;;5.94;100.00;100024.25;5071329;28;20052;-45
2024/01/02 01:44:46;;;;;;;5.38;2.30;;;;;;;5.92;100.00;100020.81;5071586;28;20059;-44
2024/01/02 01:47:15;;;;;;;6.30;2.45;;;;;;;5.91;100.00;100027.03;5082899;28;20090;-43
2024/01/02 01:49:44;;;;;;;5.35;2.28;;;;;;;5.98;100.00;100026.69;5091616;28;20048;-44
2024/01/02 01:52:14;;;;;;;6.03;2.75;;;;;;;6.01;100.00;100023.06;5091569;28;20097;-45
2024/01/02 01:54:42;;;;;;;5.47;2.45;;;;;;;6.02;100.00;100025.63;5091450;28;20504;-44
2024/01/02 01:57:13;;;;;;;6.07;2.47;;;;;;;6.03;100.00;100026.47;5091670;28;20056;-44
2024/01/02 01:59:42;;;;;;;4.78;2.13;;;;;;;5.90;100.00;100027.94;5091708;28;20143;-47
2024/01/02 02:02:11;;;;;;;8.35;3.60;;;;;;;5.70;100.00;100016.44;5076177;28;20115;-46
2024/01/02 02:04:44;;;;;;;10.27;4.05;;;;;;;5.44;100.00;100016.72;5085569;28;20558;-44
2024/01/02 02:07:13;;;;;;;10.10;5.35;;;;;;;5.15;100.00;100010.00;5083514;28;20098;-45
2024/01/02 02:09:41;;;;;;;8.85;4.32;;;;;;;5.12;100.00;100021.56;5071243;28;20052;-46
2024/01/02 02:12:11;;;;;;;10.40;5.28;;;;;;;4.96;100.00;100020.47;5071026;28;20044;-44
2024/01/02 02:14:40;;;;;;;11.75;6.15;;;;;;;4.36;100.00;100027.28;5071163;28;20128;-44
2024/01/02 02:17:08;;;;;;;11.10;6.38;;;;;;;4.47;100.00;100027.72;5072552;28;20063;-43
2024/01/02 02:19:37;;;;;;;11.50;6.47;;;;;;;4.19;100.00;100022.63;5074737;28;20045;-45
2024/01/02 02:22:07;;;;;;;10.90;6.00;;;;;;;4.40;100.00;100031.50;5086226;28;20051;-44
2024/01/02 02:24:37;;;;;;;10.77;6.30;;;;;;;4.31;100.00;100027.44;5094825;28;20058;-43
2024/01/02 02:27:09;;;;;;;12.48;6.50;;;;;;;4.36;100.00;100027.28;5094776;28;20040;-44
2024/01/02 02:29:37;;;;;;;11.95;6.25;;;;;;;4.49;100.00;100039.06;5094729;28;20048;-44
2024/01/02 02:32:06;;;;;;;13.05;6.40;;;;;;;4.62;100.00;100030.66;5094615;28;20139;-43
2024/01/02 02:34:35;;;;;;;9.02;5.70;;;;;;;4.54;100.00;100034.47;5094659;28;20493;-45
2024/01/02 02:37:07;;;;;;;10.88;5.85;;;;;;;4.48;100.00;100025.94;5092959;28;20181;-43
2024/01/02 02:39:37;;;;;;;14.20;6.03;;;;;;;4.22;100.00;100025.13;5074250;28;20060;-43
2024/01/02 02:42:05;;;;;;;11.50;5.43;;;;;;;4.26;100.00;100023.25;5074435;28;20045;-44
2024/01/02 02:44:34;;;;;;;12.45;5.53;;;;;;;4.18;100.00;100023.53;5073994;28;20056;-44
2024/01/02 02:47:02;;;;;;;11.45;6.32;;;;;;;4.03;100.00;100022.31;5087719;28;20040;-44
2024/01/02 02:49:31;;;;;;;11.98;6.20;;;;;;;4.12;100.00;100030.81;5094564;28;20084;-44
2024/01/02 02:51:59;;;;;;;12.85;6.85;;;;;;;4.12;100.00;100036.09;5094360;28;20051;-44
2024/01/02 02:54:28;;;;;;;12.60;6.68;;;;;;;4.16;100.00;100038.59;5094535;28;20048;-43
2024/01/02 02:56:57;;;;;;;10.57;6.53;;;;;;;3.80;100.00;100026.72;5094260;28;20074;-43
2024/01/02 02:59:26;;;;;;;12.10;6.95;;;;;;;3.62;100.00;100030.88;5094358;28;20048;-44
2024/01/02 03:01:55;;;;;;;13.43;7.60;;;;;;;3.59;100.00;100025.72;5053875;28;20140;-44
2024/01/02 03:04:23;;;;;;;12.55;7.68;;;;;;;3.70;100.00;100028.84;5054033;28;20049;-44
2024/01/02 03:06:51;;;;;;;13.60;7.93;;;;;;;3.78;100.00;100031.22;5053853;28;20048;-44
2024/01/02 03:09:20;;;;;;;13.80;7.30;;;;;;;3.87;100.00;100020.31;5053832;28;20509;-44
2024/01/02 03:11:49;;;;;;;13.73;7.47;;;;;;;3.92;100.00;100019.22;5053670;28;20547;-44
2024/01/02 03:14:18;;;;;;;14.35;7.55;;;;;;;3.88;100.00;100019.41;5053619;28;20053;-43
2024/01/02 03:16:47;;;;;;;13.60;6.97;;;;;;;3.90;100.00;100002.59;5056971;28;20065;-44
2024/01/02 03:19:15;;;;;;;12.80;7.32;;;;;;;3.86;100.00;100010.66;5093877;28;20459;-45
2024/01/02 03:21:43;;;;;;;11.82;7.57;;;;;;;3.97;100.00;100009.38;5093624;28;20051;-44
2024/01/02 03:24:12;;;;;;;13.15;7.35;;;;;;;3.96;100.00;99993.59;5089399;28;20048;-44
2024/01/02 03:26:40;;;;;;;12.00;6.85;;;;;;;3.95;100.00;99997.13;5073231;28;20048;-44
2024/01/02 03:29:09;;;;;;;12.43;7.43;;;;;;;3.89;100.00;100002.66;5073197;28;20060;-46
2024/01/02 03:31:38;;;;;;;11.38;7.05;;;;;;;3.99;100.00;100004.03;5073483;28;20041;-44
2024/01/02 03:34:07;;;;;;;11.65;6.40;;;;;;;4.01;100.00;100000.41;5073527;28;20045;-44
2024/01/02 03:36:36;;;;;;;11.48;6.80;;;;;;;4.00;100.00;99997.84;5073225;28;20084;-44
2024/01/02 03:39:05;;;;;;;12.18;7.25;;;;;;;3.96;100.00;99996.25;5073263;28;20147;-45
2024/01/02 03:41:33;;;;;;;12.70;6.50;;;;;;;3.93;100.00;99984.00;5084668;28;20047;-44
2024/01/02 03:44:02;;;;;;;14.20;7.20;;;;;;;3.85;100.00;99991.31;5093470;28;20052;-44
2024/01/02 03:46:30;;;;;;;13.70;6.78;;;;;;;3.83;100.00;99979.97;5093682;28;20493;-44
2024/01/02 03:49:00;;;;;;;13.32;7.28;;;;;;;3.52;100.00;99976.75;5094482;28;20094;-44
2024/01/02 03:51:28;;;;;;;12.45;7.28;;;;;;;3.54;100.00;99980.16;5094044;28;20045;-44
2024/01/02 03:53:56;;;;;;;15.82;7.90;;;;;;;3.60;100.00;99987.88;5078039;28;20044;-45
2024/01/02 03:56:25;;;;;;;13.88;6.97;;;;;;;3.65;100.00;99989.41;5072951;28;20497;-44
2024/01/02 03:58:53;;;;;;;11.40;7.03;;;;;;;3.68;100.00;99999.03;5072630;28;20052;-44
2024/01/02 04:01:21;;;;;;;11.07;7.32;;;;;;;3.63;100.00;99991.25;5072953;28;20125;-45
2024/01/02 04:03:50;;;;;;;14.48;7.30;;;;;;;3.58;100.00;99997.63;5090865;28;20076;-43
2024/01/02 04:06:19;;;;;;;10.90;6.43;;;;;;;3.55;100.00;99992.44;5092956;28;20108;-42
2024/01/02 04:08:48;;;;;;;12.80;7.28;;;;;;;3.57;100.00;99999.41;5092964;28;20413;-43
2024/01/02 04:11:17;;;;;;;11.88;6.50;;;;;;;3.55;100.00;100010.91;5092947;28;20055;-44
2024/01/02 04:13:45;;;;;;;11.50;6.75;;;;;;;3.63;100.00;100012.34;5093156;28;20059;-44
2024/01/02 04:16:14;;;;;;;11.52;6.72;;;;;;;3.70;100.00;100023.56;5086489;28;20437;-45
2024/01/02 04:18:44;;;;;;;10.23;6.38;;;;;;;3.66;100.00;100019.28;5072573;28;20066;-43
2024/01/02 04:21:13;;;;;;;10.82;6.38;;;;;;;3.70;100.00;100023.56;5072798;28;20082;-45
2024/01/02 04:23:43;;;;;;;9.65;6.18;;;;;;;3.74;100.00;100030.44;5072324;28;20135;-43
2024/01/02 04:26:11;;;;;;;10.60;5.85;;;;;;;3.64;100.00;100032.53;5072349;28;20139;-45
2024/01/02 04:28:40;;;;;;;11.63;6.30;;;;;;;3.74;100.00;100022.53;5072400;28;20048;-44
2024/01/02 04:31:08;;;;;;;12.05;6.65;;;;;;;3.72;100.00;100021.72;5072139;28;20060;-44
2024/01/02 04:33:36;;;;;;;11.63;6.40;;;;;;;3.76;100.00;100027.75;5072165;28;20465;-44
2024/01/02 04:36:06;;;;;;;12.13;6.07;;;;;;;3.73;100.00;100020.81;5074564;28;20473;-44
2024/01/02 04:38:35;;;;;;;10.18;5.68;;;;;;;3.79;100.00;100014.47;5092159;28;20048;-44
2024/01/02 04:41:06;;;;;;;10.32;5.75;;;;;;;3.78;100.00;100023.28;5091528;28;20412;-43
2024/01/02 04:43:35;;;;;;;10.45;5.85;;;;;;;3.79;100.00;100023.22;5085661;28;20131;-46
2024/01/02 04:46:04;;;;;;;10.80;5.43;;;;;;;3.89;100.00;100019.34;5071932;28;20486;-43
2024/01/02 04:48:32;;;;;;;10.98;5.35;;;;;;;3.98;100.00;100021.66;5072101;28;20085;-47
2024/01/02 04:51:00;;;;;;;10.85;5.88;;;;;;;4.02;100.00;100012.69;5072197;28;20076;-43
2024/01/02 04:53:28;;;;;;;9.80;5.72;;;;;;;4.00;100.00;100016.31;5073308;28;20048;-43
2024/01/02 04:55:57;;;;;;;12.23;6.50;;;;;;;4.05;100.00;100011.69;5092170;28;20079;-44
2024/01/02 04:58:27;;;;;;;11.50;5.53;;;;;;;3.94;100.00;100011.25;5092291;28;20131;-43
2024/01/02 05:00:55;;;;;;;12.07;6.22;;;;;;;3.95;100.00;99997.97;5091902;28;20075;-43
2024/01/02 05:03:27;;;;;;;11.55;6.07;;;;;;;3.85;100.00;100001.88;5092024;28;20052;-42
2024/01/02 05:05:56;;;;;;;9.80;5.57;;;;;;;3.81;100.00;99995.00;5092022;28;20040;-44
2024/01/02 05:08:24;;;;;;;10.63;5.93;;;;;;;3.72;100.00;99997.97;5076409;28;20044;-42
2024/01/02 05:10:52;;;;;;;11.23;5.85;;;;;;;3.76;100.00;99999.56;5080345;28;20139;-43
2024/01/02 05:13:21;;;;;;;10.35;6.18;;;;;;;3.75;100.00;100000.50;5091787;28;20051;-44
2024/01/02 05:15:51;;;;;;;12.93;6.80;;;;;;;3.70;100.00;100003.31;5091987;28;20051;-44
2024/01/02 05:18:23;;;;;;;10.25;6.40;;;;;;;3.66;100.00;99996.41;5091721;28;20067;-44
2024/01/02 05:20:52;;;;;;;13.10;7.05;;;;;;;3.78;100.00;99997.78;5091386;28;20504;-44
2024/01/02 05:23:20;;;;;;;10.48;6.53;;;;;;;3.78;100.00;99996.91;5071618;28;20060;-45
2024/01/02 05:25:48;;;;;;;13.70;7.15;;;;;;;3.75;100.00;99995.22;5071661;28;20052;-45
2024/01/02 05:28:17;;;;;;;10.43;6.53;;;;;;;3.74;100.00;99993.50;5091493;28;20126;-43
2024/01/02 05:30:45;;;;;;;12.32;7.00;;;;;;;3.67;100.00;99984.09;5080874;28;20059;-44
2024/01/02 05:33:15;;;;;;;13.63;7.50;;;;;;;3.59;100.00;99983.53;5071516;28;20044;-43
2024/01/02 05:35:44;;;;;;;13.98;7.50;;;;;;;3.46;100.00;99988.34;5071318;28;20048;-45
2024/01/02 05:38:12;;;;;;;13.13;7.70;;;;;;;3.30;100.00;99985.41;5051323;28;20096;-45
2024/01/02 05:40:40;;;;;;;13.80;8.05;;;;;;;3.33;100.00;99998.47;5051027;28;20057;-44
2024/01/02 05:43:10;;;;;;;14.90;7.82;;;;;;;3.20;100.00;100007.72;5051284;28;20045;-44
2024/01/02 05:45:38;;;;;;;11.80;7.72;;;;;;;3.14;100.00;100007.91;5070374;28;20121;-43
2024/01/02 05:48:09;;;;;;;15.95;8.35;;;;;;;2.94;100.00;100003.31;5071469;28;20045;-44
2024/01/02 05:50:40;;;;;;;16.20;8.13;;;;;;;2.94;100.00;100005.09;5072404;28;20041;-42
2024/01/02 05:53:10;;;;;;;14.10;9.07;;;;;;;2.71;100.00;100008.47;5074976;28;20044;-44
2024/01/02 05:55:38;;;;;;;14.70;8.63;;;;;;;2.83;100.00;100013.34;5075302;28;20072;-44
2024/01/02 05:58:06;;;;;;;14.73;9.50;;;;;;;2.85;100.00;100014.16;5075278;28;20051;-44
2024/01/02 06:00:35;;;;;;;16.88;8.93;;;;;;;2.83;100.00;100014.22;5074547;28;20060;-45
2024/01/02 06:03:04;;;;;;;16.05;9.63;;;;;;;2.79;100.00;100016.97;5095064;28;20051;-45
2024/01/02 06:05:33;;;;;;;15.70;9.32;;;;;;;2.71;100.00;100013.75;5095017;28;20389;-43
2024/01/02 06:08:03;;;;;;;14.88;9.18;;;;;;;2.72;100.00;100004.94;5095281;28;20389;-42
2024/01/02 06:10:32;;;;;;;16.40;9.73;;;;;;;2.69;100.00;100016.41;5094879;28;20491;-44
2024/01/02 06:13:00;;;;;;;17.95;10.05;;;;;;;2.65;100.00;100019.19;5094952;28;20095;-43
2024/01/02 06:15:28;;;;;;;18.80;10.18;;;;;;;2.55;100.00;100013.34;5083580;28;20055;-43
2024/01/02 06:17:57;;;;;;;15.63;9.57;;;;;;;2.54;100.00;100015.13;5074341;28;20140;-43
2024/01/02 06:20:26;;;;;;;16.27;10.15;;;;;;;2.42;100.00;100010.25;5074433;28;20055;-44
2024/01/02 06:22:54;;;;;;;16.00;10.23;;;;;;;2.26;100.00;100001.09;5074596;28;20048;-45
2024/01/02 06:25:24;;;;;;;16.48;10.00;;;;;;;2.32;100.00;99994.75;5074362;28;20044;-44
2024/01/02 06:27:52;;;;;;;17.95;10.68;;;;;;;2.51;100.00;100012.59;5074215;28;20090;-44
2024/01/02 06:30:22;;;;;;;15.00;10.18;;;;;;;2.60;100.00;100006.16;5074569;28;20526;-44
2024/01/02 06:32:51;;;;;;;16.40;10.30;;;;;;;2.73;100.00;100004.03;5074456;28;20059;-45
2024/01/02 06:35:20;;;;;;;16.98;10.50;;;;;;;2.52;100.00;100005.56;5086674;28;20594;-45
2024/01/02 06:37:48;;;;;;;15.95;10.35;;;;;;;2.58;100.00;100005.34;5094491;28;20099;-45
2024/01/02 06:40:16;;;;;;;16.67;10.27;;;;;;;2.45;100.00;100014.56;5076468;28;20052;-44
2024/01/02 06:42:46;;;;;;;19.80;11.55;;;;;;;2.50;100.00;100010.00;5074244;28;20055;-45
2024/01/02 06:45:14;;;;;;;18.50;11.27;;;;;;;2.58;100.00;100018.50;5074011;28;20444;-44
2024/01/02 06:47:42;;;;;;;18.02;10.60;;;;;;;2.71;100.00;100013.75;5084837;28;20052;-45
2024/01/02 06:50:11;;;;;;;21.15;11.98;;;;;;;2.34;100.00;100012.25;5094428;28;20535;-43
2024/01/02 06:52:40;;;;;;;18.98;11.60;;;;;;;2.16;100.00;100011.03;5094292;28;20066;-45
2024/01/02 06:55:12;;;;;;;24.33;11.70;;;;;;;2.34;100.00;100019.28;5076196;28;20148;-43
2024/01/02 06:57:41;;;;;;;20.88;12.02;;;;;;;2.51;100.00;100022.25;5074120;28;20049;-45
2024/01/02 07:00:13;;;;;;;20.30;11.90;;;;;;;2.50;100.00;100020.53;5086935;28;20408;-45
2024/01/02 07:02:41;;;;;;;23.20;12.40;;;;;;;2.52;100.00;100016.09;5084321;28;20127;-45
2024/01/02 07:05:13;;;;;;;20.80;12.60;;;;;;;2.56;100.00;100010.66;5074224;28;20044;-44
2024/01/02 07:07:42;;;;;;;21.20;12.98;;;;;;;2.44;100.00;100012.84;5079281;28;20047;-44
2024/01/02 07:10:11;;;;;;;21.85;13.20;;;;;;;2.71;100.00;100013.75;5079243;28;20043;-44
2024/01/02 07:12:39;;;;;;;22.88;13.65;;;;;;;2.65;100.00;100020.06;5082189;28;20423;-44
2024/01/02 07:15:08;;;;;;;23.42;12.82;;;;;;;2.46;100.00;100018.91;5089494;28;20052;-45
2024/01/02 07:17:40;;;;;;;24.05;12.95;;;;;;;2.52;100.00;100030.13;5077865;28;20048;-42
2024/01/02 07:20:09;;;;;;;25.13;13.98;;;;;;;2.45;100.00;100027.72;5078713;28;20401;-44
2024/01/02 07:22:37;;;;;;;26.27;13.95;;;;;;;2.43;100.00;100024.28;5079439;28;20378;-43
2024/01/02 07:25:06;;;;;;;25.63;13.20;;;;;;;2.23;100.00;100025.75;5079461;28;20044;-44
2024/01/02 07:27:35;;;;;;;25.63;13.88;;;;;;;2.39;100.00;100028.75;5079302;28;20047;-43
2024/01/02 07:30:04;;;;;;;22.52;13.20;;;;;;;2.55;100.00;100029.16;5080905;28;20053;-44
2024/01/02 07:32:34;;;;;;;23.48;12.98;;;;;;;2.52;100.00;100024.84;5080836;28;20044;-45
2024/01/02 07:35:04;;;;;;;21.80;12.85;;;;;;;2.44;100.00;100026.84;5079250;28;20177;-44
2024/01/02 07:37:33;;;;;;;21.60;12.35;;;;;;;2.52;100.00;100024.00;5079075;28;20054;-45
2024/01/02 07:40:02;;;;;;;21.13;12.85;;;;;;;2.66;100.00;100032.31;5079126;28;20125;-43
2024/01/02 07:42:31;;;;;;;21.25;12.68;;;;;;;2.77;100.00;100024.06;5088798;28;20048;-46
2024/01/02 07:44:59;;;;;;;22.98;12.95;;;;;;;2.46;100.00;100013.63;5085502;28;20047;-45
2024/01/02 07:47:27;;;;;;;25.15;12.88;;;;;;;2.56;100.00;100018.56;5074250;28;20131;-45
2024/01/02 07:49:57;;;;;;;22.17;12.45;;;;;;;2.57;100.00;100019.44;5074053;28;20044;-45
2024/01/02 07:52:26;;;;;;;22.92;12.60;;;;;;;2.56;100.00;100020.34;5083243;28;20078;-44
2024/01/02 07:54:55;;;;;;;22.63;12.73;;;;;;;2.48;100.00;100014.44;5081437;28;20044;-44
2024/01/02 07:57:25;;;;;;;26.25;13.18;;;;;;;2.61;100.00;100010.53;5078780;28;20093;-46
2024/01/02 07:59:53;;;;;;;22.15;12.90;;;;;;;2.72;100.00;100005.78;5078203;28;20048;-45
2024/01/02 08:02:21;;;;;;;22.85;12.25;;;;;;;2.59;100.00;100009.69;5080078;28;20043;-45
2024/01/02 08:04:50;;;;;;;23.00;12.80;;;;;;;2.50;100.00;99999.47;5076172;28;20131;-45
2024/01/02 08:07:18;;;;;;;21.08;12.57;;;;;;;2.48;100.00;100006.56;5052975;28;20052;-44
2024/01/02 08:09:48;;;;;;;22.30;12.07;;;;;;;2.56;100.00;99996.66;5052914;28;20409;-45
2024/01/02 08:12:16;;;;;;;26.38;12.68;;;;;;;2.65;100.00;99995.50;5076416;28;20117;-45
2024/01/02 08:14:45;;;;;;;22.92;13.27;;;;;;;2.66;100.00;100003.34;5092917;28;20546;-45
2024/01/02 08:17:14;;;;;;;23.15;13.48;;;;;;;2.74;100.00;99993.44;5092622;28;20100;-43
2024/01/02 08:19:42;;;;;;;23.80;12.88;;;;;;;2.56;100.00;99996.66;5092553;28;20048;-44
2024/01/02 08:22:12;;;;;;;21.00;12.50;;;;;;;2.58;100.00;99993.03;5090814;28;20071;-44
2024/01/02 08:24:41;;;;;;;19.90;12.00;;;;;;;2.66;100.00;100000.72;5092747;28;20044;-45
2024/01/02 08:27:10;;;;;;;20.10;11.85;;;;;;;2.43;100.00;99987.41;5088746;28;20049;-44
2024/01/02 08:29:39;;;;;;;20.23;12.50;;;;;;;2.56;100.00;99994.00;5072637;28;20093;-47
2024/01/02 08:32:10;;;;;;;23.88;13.25;;;;;;;2.62;100.00;99998.25;5073217;28;20045;-46
2024/01/02 08:34:39;;;;;;;23.42;13.75;;;;;;;2.64;100.00;100002.53;5072093;28;20044;-45
2024/01/02 08:37:07;;;;;;;23.88;13.57;;;;;;;2.60;100.00;99995.63;5087013;28;20101;-44
2024/01/02 08:39:35;;;;;;;27.15;13.90;;;;;;;2.60;100.00;99987.72;5078046;28;20064;-45
2024/01/02 08:42:04;;;;;;;24.25;13.95;;;;;;;2.80;100.00;99981.84;5075250;28;20143;-46
2024/01/02 08:44:34;;;;;;;24.98;13.35;;;;;;;2.86;100.00;99993.03;5077577;28;20051;-45
2024/01/02 08:47:03;;;;;;;21.70;12.20;;;;;;;2.94;100.00;99991.91;5074650;28;20044;-46
2024/01/02 08:49:31;;;;;;;23.85;12.70;;;;;;;2.94;100.00;99989.28;5072740;28;20405;-44
2024/01/02 08:51:59;;;;;;;22.95;12.00;;;;;;;2.91;100.00;99978.84;5077096;28;20440;-42
2024/01/02 08:54:28;;;;;;;22.67;12.50;;;;;;;2.88;100.00;99980.66;5078187;28;20044;-43
2024/01/02 08:56:56;;;;;;;21.95;12.38;;;;;;;2.84;100.00;99979.03;5077072;28;20037;-45
2024/01/02 08:59:24;;;;;;;22.27;11.95;;;;;;;2.84;100.00;99981.69;5077092;28;20400;-44
2024/01/02 09:01:54;;;;;;;21.85;12.80;;;;;;;3.07;100.00;99985.31;5076133;28;20059;-45
2024/01/02 09:04:23;;;;;;;23.63;12.90;;;;;;;3.17;100.00;99971.75;5076884;28;20049;-46
2024/01/02 09:06:52;;;;;;;22.70;12.45;;;;;;;3.23;100.00;99975.13;5075425;28;20040;-44
2024/01/02 09:09:21;;;;;;;22.73;13.15;;;;;;;3.26;100.00;99975.88;5076033;28;20074;-44
2024/01/02 09:11:49;;;;;;;20.52;11.80;;;;;;;3.43;100.00;99968.22;5077234;28;20040;-44
2024/01/02 09:14:17;;;;;;;22.33;13.05;;;;;;;3.51;100.00;99969.75;5078189;28;20125;-45
2024/01/02 09:16:48;;;;;;;22.10;12.18;;;;;;;3.58;100.00;99971.25;5084544;28;20481;-44
2024/01/02 09:19:18;;;;;;;19.65;11.43;;;;;;;3.55;100.00;99966.06;5088938;28;20123;-45
2024/01/02 09:21:47;;;;;;;23.02;12.38;;;;;;;3.50;100.00;99957.47;5073853;28;20065;-44
2024/01/02 09:24:18;;;;;;;21.48;12.52;;;;;;;3.30;100.00;99953.78;5079320;28;20044;-45
2024/01/02 09:26:50;;;;;;;21.63;12.25;;;;;;;3.32;100.00;99948.44;5084031;28;20066;-43
2024/01/02 09:29:21;;;;;;;22.30;11.75;;;;;;;3.60;100.00;99943.91;5084815;28;20036;-43
2024/01/02 09:31:49;;;;;;;25.42;12.32;;;;;;;3.55;100.00;99934.41;5075461;28;20561;-44
2024/01/02 09:34:19;;;;;;;25.40;12.38;;;;;;;3.58;100.00;99937.81;5075878;28;20064;-43
2024/01/02 09:36:48;;;;;;;23.50;12.85;;;;;;;3.48;100.00;99932.94;5075363;28;20082;-43
2024/01/02 09:39:16;;;;;;;22.63;12.75;;;;;;;3.44;100.00;99926.91;5075623;28;20451;-44
2024/01/02 09:42:01;;;;;;;23.75;12.60;;;;;;;3.43;100.00;99923.41;5076124;28;20094;-43
2024/01/02 09:44:47;;;;;;;26.30;14.18;;;;;;;3.54;100.00;99924.78;5075977;28;20072;-44
2024/01/02 09:47:26;;;;;;;24.60;14.07;;;;;;;3.57;100.00;99927.31;5075858;28;20421;-45
2024/01/02 09:50:02;;;;;;;21.23;13.15;;;;;;;3.61;100.00;99929.78;5076366;28;20059;-44
2024/01/02 09:52:49;;;;;;;22.75;12.35;;;;;;;3.73;100.00;99928.47;5075734;28;20103;-44
2024/01/02 09:55:22;;;;;;;24.00;12.85;;;;;;;3.67;100.00;99934.00;5075633;28;20048;-45
2024/01/02 09:58:03;;;;;;;24.05;12.70;;;;;;;3.71;100.00;99931.16;5077856;28;20052;-44
2024/01/02 10:00:42;;;;;;;22.33;12.70;;;;;;;3.74;100.00;99930.19;5075607;28;20043;-44
2024/01/02 10:03:35;;;;;;;21.00;12.68;;;;;;;3.79;100.00;99933.53;5076025;28;20490;-43
2024/01/02 10:06:21;;;;;;;20.50;11.82;;;;;;;3.83;100.00;99927.22;5075188;28;20047;-44
2024/01/02 10:09:15;;;;;;;19.88;11.65;;;;;;;3.82;100.00;99922.84;5076856;28;20052;-45
2024/01/02 10:11:53;;;;;;;18.10;11.05;;;;;;;3.85;100.00;99913.94;5074953;28;20626;-44
2024/01/02 10:14:28;;;;;;;19.30;11.43;;;;;;;3.86;100.00;99903.38;5077425;28;20050;-46
2024/01/02 10:17:06;;;;;;;20.95;12.00;;;;;;;3.77;100.00;99903.72;5076956;28;20049;-43
2024/01/02 10:19:43;;;;;;;20.98;12.15;;;;;;;3.68;100.00;99907.56;5077425;28;20118;-44
2024/01/02 10:22:26;;;;;;;21.95;12.20;;;;;;;3.77;100.00;99898.44;5075921;28;20182;-44
2024/01/02 10:25:05;;;;;;;20.55;12.15;;;;;;;3.77;100.00;99895.81;5077693;28;20367;-44
2024/01/02 10:27:46;;;;;;;22.60;12.50;;;;;;;3.70;100.00;99896.94;5076425;28;20047;-43
2024/01/02 10:30:20;;;;;;;19.33;12.32;;;;;;;3.72;100.00;99889.81;5077548;28;20429;-44
2024/01/02 10:32:59;;;;;;;21.98;12.98;;;;;;;3.81;100.00;99893.91;5077204;28;20135;-44
2024/01/02 10:35:53;;;;;;;23.85;13.50;;;;;;;3.87;100.00;99888.41;5072095;28;20436;-45
2024/01/02 10:38:57;;;;;;;20.48;12.80;;;;;;;3.96;100.00;99888.91;5076860;28;20613;-45
2024/01/02 10:41:56;;;;;;;23.95;12.73;;;;;;;4.05;100.00;99865.69;5077510;28;20523;-43
2024/01/02 10:44:56;;;;;;;23.58;12.70;;;;;;;4.20;100.00;99859.78;5079217;28;20051;-43
2024/01/02 10:47:58;;;;;;;23.02;13.38;;;;;;;4.27;100.00;99854.22;5077109;28;20578;-43
2024/01/02 10:50:58;;;;;;;37.30;19.20;;;;;;;4.34;100.00;99852.16;5078619;28;20083;-45
2024/01/02 10:53:58;;;;;;;33.38;17.10;;;;;;;4.34;100.00;99846.88;5077364;28;20352;-45
2024/01/02 10:56:58;;;;;;;23.73;12.73;;;;;;;4.45;100.00;99849.97;5078405;28;20080;-43
2024/01/02 10:59:45;;;;;;;23.90;13.35;;;;;;;4.46;100.00;99840.25;5079537;28;20424;-43
2024/01/02 11:02:33;;;;;;;21.23;12.48;;;;;;;4.62;100.00;99846.59;5079588;28;20040;-43
2024/01/02 11:05:11;;;;;;;25.02;12.35;;;;;;;4.62;100.00;99830.75;5080196;28;20051;-44
2024/01/02 11:07:42;;;;;;;18.80;11.60;;;;;;;4.73;100.00;99830.28;5079445;28;20130;-45
2024/01/02 11:10:14;;;;;;;19.00;11.75;;;;;;;4.73;100.00;99827.63;5077449;28;20098;-44
2024/01/02 11:12:52;;;;;;;19.65;11.98;;;;;;;4.85;100.00;99822.72;5080612;28;20048;-44
2024/01/02 11:15:25;;;;;;;19.42;12.43;;;;;;;4.90;100.00;99809.28;5082646;28;20055;-44
2024/01/02 11:17:54;;;;;;;19.73;12.90;;;;;;;5.01;100.00;99812.31;5079749;28;20044;-44
2024/01/02 11:20:30;;;;;;;19.65;13.35;;;;;;;4.95;100.00;99801.16;5081890;28;20485;-45
2024/01/02 11:23:02;;;;;;;23.33;13.63;;;;;;;4.91;100.00;99810.13;5079725;28;20044;-45
2024/01/02 11:25:34;;;;;;;26.05;15.05;;;;;;;4.92;100.00;99804.78;5082334;28;20094;-45
2024/01/02 11:28:13;;;;;;;25.63;15.77;;;;;;;5.07;100.00;99803.25;5080323;28;20052;-44
2024/01/02 11:30:48;;;;;;;32.47;17.23;;;;;;;5.10;100.00;99801.31;5079148;28;20165;-44
2024/01/02 11:33:25;;;;;;;28.38;16.98;;;;;;;5.14;100.00;99804.69;5078305;28;20556;-45
2024/01/02 11:36:12;;;;;;;31.58;17.02;;;;;;;5.34;100.00;99809.09;5078848;28;20044;-45